EJU28PL LPPT-LEPA
Flight info
| Callsign | EJU28PL |
|---|---|
| Flight time | 1h 32m |
| Altitude | 36000 |
| Route | ORVED DCT UREDI DCT NVS DCT NANDO DCT FENXE DCT MABUX DCT RETBA DCT MOPIR DCT LASPO DCT ORVUS M871 GODOX |
| Aircraft | A320/M-SDE3FGHIRWY/LB1 |
Departure
| Time | 2026-05-04 12:28 |
|---|---|
| Airport | Lisbon Humberto Delgado Airport (LPPT) |
Arrival
| Time | 2026-05-04 14:00 |
|---|---|
| Airport | Palma de Mallorca Airport (LEPA) |
| Time | Latitude | Longitude | Altitude | Speed | Heading |
|---|---|---|---|---|---|
| 2026-05-04 12:12 | 38.77298 | -9.13158 | 347 ft | 0 kts | 78° |
| 2026-05-04 12:18 | 38.77297 | -9.13159 | 347 ft | 1 kts | 78° |
| 2026-05-04 12:18 | 38.77292 | -9.13190 | 351 ft | 4 kts | 78° |
| 2026-05-04 12:18 | 38.77288 | -9.13218 | 353 ft | 4 kts | 72° |
| 2026-05-04 12:18 | 38.77275 | -9.13240 | 354 ft | 4 kts | 11° |
| 2026-05-04 12:19 | 38.77261 | -9.13241 | 352 ft | 3 kts | 348° |
| 2026-05-04 12:19 | 38.77280 | -9.13247 | 354 ft | 0 kts | 348° |
| 2026-05-04 12:21 | 38.77288 | -9.13249 | 356 ft | 6 kts | 348° |
| 2026-05-04 12:22 | 38.77333 | -9.13261 | 357 ft | 12 kts | 349° |
| 2026-05-04 12:22 | 38.77417 | -9.13281 | 347 ft | 13 kts | 350° |
| 2026-05-04 12:22 | 38.77539 | -9.13309 | 349 ft | 23 kts | 349° |
| 2026-05-04 12:22 | 38.77699 | -9.13332 | 347 ft | 24 kts | 355° |
| 2026-05-04 12:23 | 38.77863 | -9.13373 | 347 ft | 24 kts | 347° |
| 2026-05-04 12:23 | 38.78030 | -9.13420 | 354 ft | 25 kts | 349° |
| 2026-05-04 12:23 | 38.78202 | -9.13465 | 353 ft | 26 kts | 348° |
| 2026-05-04 12:23 | 38.78384 | -9.13515 | 344 ft | 27 kts | 347° |
| 2026-05-04 12:24 | 38.78566 | -9.13563 | 346 ft | 26 kts | 348° |
| 2026-05-04 12:24 | 38.78740 | -9.13513 | 352 ft | 26 kts | 22° |
| 2026-05-04 12:24 | 38.78913 | -9.13426 | 348 ft | 27 kts | 21° |
| 2026-05-04 12:24 | 38.79089 | -9.13334 | 355 ft | 28 kts | 22° |
| 2026-05-04 12:25 | 38.79266 | -9.13240 | 356 ft | 28 kts | 24° |
| 2026-05-04 12:25 | 38.79450 | -9.13139 | 353 ft | 29 kts | 22° |
| 2026-05-04 12:25 | 38.79638 | -9.13040 | 350 ft | 30 kts | 22° |
| 2026-05-04 12:25 | 38.79759 | -9.12962 | 352 ft | 17 kts | 47° |
| 2026-05-04 12:26 | 38.79753 | -9.12827 | 356 ft | 15 kts | 118° |
| 2026-05-04 12:26 | 38.79674 | -9.12770 | 350 ft | 13 kts | 184° |
| 2026-05-04 12:26 | 38.79596 | -9.12805 | 353 ft | 10 kts | 201° |
| 2026-05-04 12:26 | 38.79538 | -9.12836 | 351 ft | 8 kts | 205° |
| 2026-05-04 12:27 | 38.79441 | -9.12890 | 349 ft | 41 kts | 202° |
| 2026-05-04 12:27 | 38.78955 | -9.13152 | 349 ft | 108 kts | 202° |
| 2026-05-04 12:27 | 38.78093 | -9.13612 | 349 ft | 158 kts | 201° |
| 2026-05-04 12:27 | 38.77074 | -9.14203 | 721 ft | 166 kts | 207° |
| 2026-05-04 12:28 | 38.76007 | -9.14820 | 1346 ft | 173 kts | 208° |
| 2026-05-04 12:28 | 38.74864 | -9.15450 | 1746 ft | 190 kts | 206° |
| 2026-05-04 12:28 | 38.73564 | -9.16138 | 2001 ft | 214 kts | 206° |
| 2026-05-04 12:28 | 38.72064 | -9.16917 | 2111 ft | 252 kts | 205° |
| 2026-05-04 12:29 | 38.70348 | -9.17803 | 2611 ft | 270 kts | 205° |
| 2026-05-04 12:29 | 38.68604 | -9.18712 | 3608 ft | 272 kts | 205° |
| 2026-05-04 12:29 | 38.66811 | -9.19511 | 4520 ft | 277 kts | 190° |
| 2026-05-04 12:29 | 38.64884 | -9.19340 | 5382 ft | 283 kts | 160° |
| 2026-05-04 12:30 | 38.63228 | -9.17996 | 6249 ft | 286 kts | 130° |
| 2026-05-04 12:30 | 38.62219 | -9.15820 | 7089 ft | 286 kts | 111° |
| 2026-05-04 12:30 | 38.61564 | -9.13414 | 7922 ft | 288 kts | 97° |
| 2026-05-04 12:30 | 38.61629 | -9.10863 | 8677 ft | 289 kts | 72° |
| 2026-05-04 12:31 | 38.62489 | -9.08527 | 9480 ft | 289 kts | 49° |
| 2026-05-04 12:31 | 38.63974 | -9.06833 | 10248 ft | 287 kts | 26° |
| 2026-05-04 12:31 | 38.65845 | -9.05873 | 10716 ft | 299 kts | 15° |
| 2026-05-04 12:31 | 38.67875 | -9.05036 | 10945 ft | 322 kts | 14° |
| 2026-05-04 12:32 | 38.70083 | -9.04152 | 11235 ft | 340 kts | 14° |
| 2026-05-04 12:32 | 38.74686 | -9.02165 | 12472 ft | 357 kts | 24° |
| 2026-05-04 12:32 | 38.76704 | -9.00246 | 13090 ft | 370 kts | 44° |
| 2026-05-04 12:33 | 38.78192 | -8.97509 | 13720 ft | 379 kts | 56° |
| 2026-05-04 12:33 | 38.79553 | -8.94588 | 14290 ft | 384 kts | 57° |
| 2026-05-04 12:33 | 38.80921 | -8.91621 | 14894 ft | 388 kts | 57° |
| 2026-05-04 12:33 | 38.82302 | -8.88616 | 15491 ft | 392 kts | 57° |
| 2026-05-04 12:34 | 38.83691 | -8.85589 | 16076 ft | 396 kts | 57° |
| 2026-05-04 12:34 | 38.85099 | -8.82529 | 16665 ft | 400 kts | 57° |
| 2026-05-04 12:34 | 38.86521 | -8.79448 | 17249 ft | 403 kts | 57° |
| 2026-05-04 12:34 | 38.87956 | -8.76343 | 17830 ft | 407 kts | 56° |
| 2026-05-04 12:35 | 38.89406 | -8.73203 | 18396 ft | 411 kts | 57° |
| 2026-05-04 12:35 | 38.90869 | -8.70035 | 18888 ft | 414 kts | 57° |
| 2026-05-04 12:35 | 38.92340 | -8.66843 | 19377 ft | 417 kts | 57° |
| 2026-05-04 12:35 | 38.93820 | -8.63624 | 19857 ft | 420 kts | 57° |
| 2026-05-04 12:36 | 38.95309 | -8.60379 | 20332 ft | 423 kts | 56° |
| 2026-05-04 12:36 | 38.96808 | -8.57114 | 20801 ft | 426 kts | 56° |
| 2026-05-04 12:36 | 38.98321 | -8.53807 | 21282 ft | 429 kts | 56° |
| 2026-05-04 12:36 | 38.99837 | -8.50487 | 21738 ft | 432 kts | 56° |
| 2026-05-04 12:37 | 39.01363 | -8.47142 | 22200 ft | 435 kts | 56° |
| 2026-05-04 12:37 | 39.02903 | -8.43772 | 22654 ft | 438 kts | 56° |
| 2026-05-04 12:37 | 39.04453 | -8.40385 | 23099 ft | 441 kts | 56° |
| 2026-05-04 12:37 | 39.06012 | -8.36974 | 23569 ft | 444 kts | 56° |
| 2026-05-04 12:38 | 39.07578 | -8.33534 | 23938 ft | 447 kts | 57° |
| 2026-05-04 12:38 | 39.09153 | -8.30073 | 24282 ft | 450 kts | 57° |
| 2026-05-04 12:38 | 39.10742 | -8.26577 | 24622 ft | 453 kts | 57° |
| 2026-05-04 12:38 | 39.12338 | -8.23057 | 24962 ft | 456 kts | 57° |
| 2026-05-04 12:39 | 39.13937 | -8.19525 | 25301 ft | 459 kts | 57° |
| 2026-05-04 12:39 | 39.15551 | -8.15959 | 25628 ft | 461 kts | 57° |
| 2026-05-04 12:39 | 39.17172 | -8.12383 | 25960 ft | 464 kts | 57° |
| 2026-05-04 12:39 | 39.18798 | -8.08788 | 26283 ft | 467 kts | 57° |
| 2026-05-04 12:40 | 39.20437 | -8.05157 | 26607 ft | 469 kts | 57° |
| 2026-05-04 12:40 | 39.22081 | -8.01512 | 26918 ft | 472 kts | 57° |
| 2026-05-04 12:40 | 39.23737 | -7.97833 | 27255 ft | 474 kts | 57° |
| 2026-05-04 12:40 | 39.25395 | -7.94144 | 27579 ft | 477 kts | 57° |
| 2026-05-04 12:41 | 39.27061 | -7.90432 | 27899 ft | 480 kts | 57° |
| 2026-05-04 12:41 | 39.28737 | -7.86694 | 28199 ft | 482 kts | 57° |
| 2026-05-04 12:41 | 39.30422 | -7.82934 | 28495 ft | 485 kts | 57° |
| 2026-05-04 12:41 | 39.32113 | -7.79157 | 28790 ft | 487 kts | 57° |
| 2026-05-04 12:42 | 39.33813 | -7.75353 | 29087 ft | 489 kts | 57° |
| 2026-05-04 12:42 | 39.35514 | -7.71544 | 29374 ft | 491 kts | 57° |
| 2026-05-04 12:42 | 39.37227 | -7.67705 | 29644 ft | 494 kts | 57° |
| 2026-05-04 12:42 | 39.38927 | -7.63840 | 29922 ft | 496 kts | 58° |
| 2026-05-04 12:43 | 39.40554 | -7.59886 | 30177 ft | 499 kts | 60° |
| 2026-05-04 12:43 | 39.42109 | -7.55866 | 30461 ft | 500 kts | 61° |
| 2026-05-04 12:43 | 39.43618 | -7.51812 | 30755 ft | 500 kts | 62° |
| 2026-05-04 12:43 | 39.45112 | -7.47745 | 31066 ft | 501 kts | 62° |
| 2026-05-04 12:44 | 39.46618 | -7.43677 | 31351 ft | 500 kts | 62° |
| 2026-05-04 12:44 | 39.48138 | -7.39629 | 31665 ft | 500 kts | 61° |
| 2026-05-04 12:44 | 39.49677 | -7.35597 | 31972 ft | 500 kts | 60° |
| 2026-05-04 12:44 | 39.51230 | -7.31570 | 32295 ft | 500 kts | 60° |
| 2026-05-04 12:45 | 39.52789 | -7.27537 | 32594 ft | 500 kts | 60° |
| 2026-05-04 12:45 | 39.54335 | -7.23516 | 32891 ft | 500 kts | 60° |
| 2026-05-04 12:45 | 39.55881 | -7.19475 | 33192 ft | 500 kts | 61° |
| 2026-05-04 12:45 | 39.57421 | -7.15427 | 33474 ft | 501 kts | 61° |
| 2026-05-04 12:46 | 39.58959 | -7.11372 | 33786 ft | 501 kts | 61° |
| 2026-05-04 12:46 | 39.60495 | -7.07312 | 34070 ft | 501 kts | 61° |
| 2026-05-04 12:46 | 39.62032 | -7.03257 | 34333 ft | 501 kts | 61° |
| 2026-05-04 12:46 | 39.63569 | -6.99203 | 34595 ft | 501 kts | 61° |
| 2026-05-04 12:47 | 39.65102 | -6.95151 | 34841 ft | 501 kts | 62° |
| 2026-05-04 12:47 | 39.66637 | -6.91090 | 35081 ft | 501 kts | 62° |
| 2026-05-04 12:47 | 39.68169 | -6.87030 | 35317 ft | 501 kts | 62° |
| 2026-05-04 12:47 | 39.69696 | -6.82973 | 35557 ft | 501 kts | 62° |
| 2026-05-04 12:48 | 39.71221 | -6.78909 | 35747 ft | 501 kts | 62° |
| 2026-05-04 12:48 | 39.72748 | -6.74831 | 35941 ft | 502 kts | 62° |
| 2026-05-04 12:48 | 39.74273 | -6.70754 | 36012 ft | 503 kts | 62° |
| 2026-05-04 12:49 | 39.77330 | -6.62570 | 36013 ft | 503 kts | 62° |
| 2026-05-04 12:49 | 39.80386 | -6.54398 | 36011 ft | 503 kts | 62° |
| 2026-05-04 12:50 | 39.83430 | -6.46210 | 36011 ft | 503 kts | 62° |
| 2026-05-04 12:50 | 39.86335 | -6.37912 | 36012 ft | 505 kts | 70° |
| 2026-05-04 12:51 | 39.88492 | -6.29208 | 36003 ft | 505 kts | 71° |
| 2026-05-04 12:51 | 39.90633 | -6.20502 | 35999 ft | 505 kts | 71° |
| 2026-05-04 12:52 | 39.92782 | -6.11777 | 36000 ft | 505 kts | 71° |
| 2026-05-04 12:52 | 39.94927 | -6.03053 | 35994 ft | 506 kts | 71° |
| 2026-05-04 12:53 | 39.97063 | -5.94323 | 35989 ft | 506 kts | 72° |
| 2026-05-04 12:53 | 39.97745 | -5.89761 | 35984 ft | 505 kts | 88° |
| 2026-05-04 12:53 | 39.97588 | -5.85218 | 35985 ft | 502 kts | 100° |
| 2026-05-04 12:54 | 39.96595 | -5.76214 | 35974 ft | 502 kts | 101° |
| 2026-05-04 12:54 | 39.95585 | -5.67200 | 35971 ft | 503 kts | 101° |
| 2026-05-04 12:55 | 39.94573 | -5.58169 | 35970 ft | 504 kts | 101° |
| 2026-05-04 12:55 | 39.93736 | -5.50647 | 35973 ft | 505 kts | 101° |
| 2026-05-04 12:56 | 39.92712 | -5.41542 | 35971 ft | 505 kts | 101° |
| 2026-05-04 12:56 | 39.91672 | -5.32434 | 35971 ft | 505 kts | 101° |
| 2026-05-04 12:57 | 39.90632 | -5.23398 | 35946 ft | 505 kts | 101° |
| 2026-05-04 12:57 | 39.89576 | -5.14279 | 35949 ft | 506 kts | 101° |
| 2026-05-04 12:58 | 39.88518 | -5.05212 | 35960 ft | 507 kts | 101° |
| 2026-05-04 12:58 | 39.87455 | -4.96132 | 35961 ft | 507 kts | 101° |
| 2026-05-04 12:59 | 39.86381 | -4.87055 | 35946 ft | 508 kts | 102° |
| 2026-05-04 12:59 | 39.85300 | -4.77967 | 35952 ft | 508 kts | 102° |
| 2026-05-04 13:00 | 39.84220 | -4.68885 | 35951 ft | 508 kts | 102° |
| 2026-05-04 13:00 | 39.83128 | -4.59799 | 35956 ft | 508 kts | 102° |
| 2026-05-04 13:01 | 39.82023 | -4.50711 | 35960 ft | 508 kts | 102° |
| 2026-05-04 13:01 | 39.80912 | -4.41644 | 35968 ft | 508 kts | 102° |
| 2026-05-04 13:02 | 39.79798 | -4.32577 | 35971 ft | 508 kts | 102° |
| 2026-05-04 13:02 | 39.78713 | -4.23507 | 35962 ft | 508 kts | 102° |
| 2026-05-04 13:03 | 39.77645 | -4.14432 | 35966 ft | 508 kts | 102° |
| 2026-05-04 13:03 | 39.76553 | -4.05373 | 35961 ft | 507 kts | 102° |
| 2026-05-04 13:04 | 39.75448 | -3.96311 | 35961 ft | 507 kts | 102° |
| 2026-05-04 13:04 | 39.74330 | -3.87265 | 35948 ft | 507 kts | 102° |
| 2026-05-04 13:05 | 39.73208 | -3.78226 | 35931 ft | 507 kts | 103° |
| 2026-05-04 13:05 | 39.72090 | -3.69161 | 35940 ft | 507 kts | 103° |
| 2026-05-04 13:06 | 39.70967 | -3.60111 | 35947 ft | 507 kts | 103° |
| 2026-05-04 13:06 | 39.69831 | -3.51073 | 35951 ft | 507 kts | 103° |
| 2026-05-04 13:07 | 39.68684 | -3.42036 | 35931 ft | 507 kts | 103° |
| 2026-05-04 13:07 | 39.67529 | -3.33015 | 35952 ft | 507 kts | 103° |
| 2026-05-04 13:08 | 39.66372 | -3.23992 | 35964 ft | 507 kts | 104° |
| 2026-05-04 13:08 | 39.65207 | -3.14972 | 35973 ft | 506 kts | 104° |
| 2026-05-04 13:09 | 39.64025 | -3.05905 | 35975 ft | 506 kts | 104° |
| 2026-05-04 13:09 | 39.62850 | -2.96902 | 35979 ft | 506 kts | 104° |
| 2026-05-04 13:10 | 39.61665 | -2.87922 | 35991 ft | 505 kts | 104° |
| 2026-05-04 13:10 | 39.60474 | -2.78935 | 35993 ft | 505 kts | 104° |
| 2026-05-04 13:11 | 39.59289 | -2.70023 | 36005 ft | 505 kts | 104° |
| 2026-05-04 13:11 | 39.58088 | -2.61059 | 35994 ft | 504 kts | 104° |
| 2026-05-04 13:12 | 39.56879 | -2.52110 | 36018 ft | 504 kts | 105° |
| 2026-05-04 13:12 | 39.55659 | -2.43176 | 36016 ft | 503 kts | 105° |
| 2026-05-04 13:13 | 39.54441 | -2.34254 | 35996 ft | 503 kts | 105° |
| 2026-05-04 13:13 | 39.53215 | -2.25337 | 35984 ft | 502 kts | 105° |
| 2026-05-04 13:14 | 39.51988 | -2.16433 | 35997 ft | 502 kts | 105° |
| 2026-05-04 13:14 | 39.50802 | -2.07460 | 36002 ft | 505 kts | 98° |
| 2026-05-04 13:15 | 39.50536 | -1.98342 | 35997 ft | 507 kts | 96° |
| 2026-05-04 13:15 | 39.50320 | -1.89206 | 35958 ft | 507 kts | 96° |
| 2026-05-04 13:16 | 39.50093 | -1.80098 | 36000 ft | 506 kts | 96° |
| 2026-05-04 13:16 | 39.49851 | -1.71007 | 36012 ft | 505 kts | 96° |
| 2026-05-04 13:17 | 39.49601 | -1.61929 | 36004 ft | 504 kts | 96° |
| 2026-05-04 13:17 | 39.49353 | -1.52863 | 36002 ft | 504 kts | 96° |
| 2026-05-04 13:18 | 39.49097 | -1.43810 | 35981 ft | 503 kts | 97° |
| 2026-05-04 13:18 | 39.48826 | -1.34767 | 35973 ft | 503 kts | 97° |
| 2026-05-04 13:19 | 39.48542 | -1.25658 | 35976 ft | 502 kts | 97° |
| 2026-05-04 13:19 | 39.48260 | -1.16619 | 35971 ft | 502 kts | 97° |
| 2026-05-04 13:20 | 39.47976 | -1.07595 | 35960 ft | 502 kts | 97° |
| 2026-05-04 13:20 | 39.47676 | -0.98569 | 35959 ft | 502 kts | 97° |
| 2026-05-04 13:21 | 39.47372 | -0.89554 | 35949 ft | 501 kts | 97° |
| 2026-05-04 13:21 | 39.47062 | -0.80550 | 35947 ft | 501 kts | 97° |
| 2026-05-04 13:22 | 39.46752 | -0.71532 | 35920 ft | 501 kts | 98° |
| 2026-05-04 13:22 | 39.46429 | -0.62535 | 35926 ft | 501 kts | 98° |
| 2026-05-04 13:23 | 39.46095 | -0.53508 | 35898 ft | 493 kts | 98° |
| 2026-05-04 13:23 | 39.45938 | -0.49113 | 35653 ft | 486 kts | 98° |
| 2026-05-04 13:23 | 39.45775 | -0.44700 | 34592 ft | 496 kts | 98° |
| 2026-05-04 13:23 | 39.45600 | -0.40211 | 33608 ft | 503 kts | 98° |
| 2026-05-04 13:24 | 39.45420 | -0.35676 | 32652 ft | 507 kts | 98° |
| 2026-05-04 13:24 | 39.45237 | -0.31106 | 31704 ft | 510 kts | 98° |
| 2026-05-04 13:24 | 39.45056 | -0.26503 | 30792 ft | 513 kts | 98° |
| 2026-05-04 13:25 | 39.44690 | -0.17237 | 28882 ft | 516 kts | 98° |
| 2026-05-04 13:25 | 39.44570 | -0.14174 | 28372 ft | 513 kts | 98° |
| 2026-05-04 13:25 | 39.44390 | -0.09583 | 27651 ft | 508 kts | 98° |
| 2026-05-04 13:25 | 39.44208 | -0.05036 | 26960 ft | 503 kts | 98° |
| 2026-05-04 13:26 | 39.44022 | -0.00548 | 26276 ft | 498 kts | 98° |
| 2026-05-04 13:26 | 39.43833 | 0.03907 | 25604 ft | 493 kts | 98° |
| 2026-05-04 13:26 | 39.43642 | 0.08316 | 24973 ft | 489 kts | 98° |
| 2026-05-04 13:26 | 39.43449 | 0.12742 | 24345 ft | 484 kts | 98° |
| 2026-05-04 13:27 | 39.43266 | 0.17016 | 23745 ft | 480 kts | 98° |
| 2026-05-04 13:27 | 39.43078 | 0.21359 | 23074 ft | 476 kts | 98° |
| 2026-05-04 13:27 | 39.42894 | 0.25565 | 22428 ft | 472 kts | 98° |
| 2026-05-04 13:27 | 39.42711 | 0.29781 | 21766 ft | 468 kts | 97° |
| 2026-05-04 13:28 | 39.42525 | 0.33971 | 21150 ft | 464 kts | 97° |
| 2026-05-04 13:28 | 39.42339 | 0.38166 | 20554 ft | 459 kts | 97° |
| 2026-05-04 13:28 | 39.42159 | 0.42217 | 19969 ft | 455 kts | 97° |
| 2026-05-04 13:28 | 39.41974 | 0.46334 | 19405 ft | 451 kts | 97° |
| 2026-05-04 13:29 | 39.41786 | 0.50354 | 18861 ft | 446 kts | 97° |
| 2026-05-04 13:29 | 39.41601 | 0.54295 | 18333 ft | 442 kts | 97° |
| 2026-05-04 13:29 | 39.41414 | 0.58302 | 17746 ft | 438 kts | 96° |
| 2026-05-04 13:29 | 39.41232 | 0.62214 | 17217 ft | 435 kts | 96° |
| 2026-05-04 13:30 | 39.41049 | 0.66114 | 16948 ft | 433 kts | 96° |
| 2026-05-04 13:30 | 39.40865 | 0.69991 | 16690 ft | 432 kts | 96° |
| 2026-05-04 13:30 | 39.40682 | 0.73853 | 16432 ft | 430 kts | 96° |
| 2026-05-04 13:30 | 39.40498 | 0.77652 | 16171 ft | 428 kts | 96° |
| 2026-05-04 13:31 | 39.40315 | 0.81473 | 15917 ft | 425 kts | 96° |
| 2026-05-04 13:31 | 39.40336 | 0.85296 | 15670 ft | 425 kts | 89° |
| 2026-05-04 13:31 | 39.40498 | 0.89106 | 15491 ft | 424 kts | 89° |
| 2026-05-04 13:31 | 39.40672 | 0.92906 | 15325 ft | 422 kts | 89° |
| 2026-05-04 13:32 | 39.40855 | 0.96738 | 15150 ft | 421 kts | 89° |
| 2026-05-04 13:32 | 39.41037 | 1.00508 | 14984 ft | 420 kts | 89° |
| 2026-05-04 13:32 | 39.41215 | 1.04221 | 14805 ft | 418 kts | 89° |
| 2026-05-04 13:32 | 39.41392 | 1.08016 | 14645 ft | 417 kts | 89° |
| 2026-05-04 13:33 | 39.41558 | 1.11701 | 14479 ft | 415 kts | 89° |
| 2026-05-04 13:33 | 39.41721 | 1.15472 | 14290 ft | 414 kts | 89° |
| 2026-05-04 13:33 | 39.41879 | 1.19178 | 14133 ft | 412 kts | 89° |
| 2026-05-04 13:33 | 39.42040 | 1.22876 | 13972 ft | 411 kts | 89° |
| 2026-05-04 13:34 | 39.42202 | 1.26551 | 13795 ft | 409 kts | 89° |
| 2026-05-04 13:34 | 39.42362 | 1.30219 | 13627 ft | 408 kts | 89° |
| 2026-05-04 13:34 | 39.42522 | 1.33881 | 13442 ft | 406 kts | 89° |
| 2026-05-04 13:34 | 39.42679 | 1.37518 | 13261 ft | 405 kts | 89° |
| 2026-05-04 13:35 | 39.42833 | 1.41199 | 13075 ft | 404 kts | 89° |
| 2026-05-04 13:35 | 39.43134 | 1.48433 | 12950 ft | 402 kts | 89° |
| 2026-05-04 13:35 | 39.43285 | 1.52038 | 12951 ft | 402 kts | 89° |
| 2026-05-04 13:36 | 39.43437 | 1.55650 | 12949 ft | 402 kts | 89° |
| 2026-05-04 13:36 | 39.43593 | 1.59255 | 12948 ft | 402 kts | 87° |
| 2026-05-04 13:36 | 39.44026 | 1.62836 | 12950 ft | 403 kts | 81° |
| 2026-05-04 13:36 | 39.44534 | 1.66401 | 12951 ft | 403 kts | 81° |
| 2026-05-04 13:37 | 39.45056 | 1.69940 | 12953 ft | 403 kts | 81° |
| 2026-05-04 13:37 | 39.45589 | 1.73522 | 12954 ft | 403 kts | 81° |
| 2026-05-04 13:37 | 39.46116 | 1.77086 | 12954 ft | 403 kts | 81° |
| 2026-05-04 13:37 | 39.46461 | 1.79446 | 12952 ft | 403 kts | 81° |
| 2026-05-04 13:38 | 39.47150 | 1.84218 | 12953 ft | 412 kts | 81° |
| 2026-05-04 13:38 | 39.47673 | 1.87885 | 12953 ft | 414 kts | 81° |
| 2026-05-04 13:38 | 39.48191 | 1.91535 | 12940 ft | 415 kts | 81° |
| 2026-05-04 13:38 | 39.48719 | 1.95241 | 12947 ft | 414 kts | 81° |
| 2026-05-04 13:39 | 39.49242 | 1.98903 | 12958 ft | 413 kts | 81° |
| 2026-05-04 13:39 | 39.49755 | 2.02515 | 12951 ft | 413 kts | 81° |
| 2026-05-04 13:39 | 39.50272 | 2.06178 | 12958 ft | 413 kts | 81° |
| 2026-05-04 13:39 | 39.50791 | 2.09884 | 12951 ft | 413 kts | 81° |
| 2026-05-04 13:40 | 39.51303 | 2.13546 | 12962 ft | 413 kts | 81° |
| 2026-05-04 13:40 | 39.51815 | 2.17199 | 12962 ft | 413 kts | 81° |
| 2026-05-04 13:40 | 39.52330 | 2.20862 | 12961 ft | 413 kts | 81° |
| 2026-05-04 13:40 | 39.52846 | 2.24526 | 12965 ft | 413 kts | 81° |
| 2026-05-04 13:41 | 39.53269 | 2.27540 | 12966 ft | 413 kts | 81° |
| 2026-05-04 13:41 | 39.53780 | 2.31205 | 12970 ft | 413 kts | 81° |
| 2026-05-04 13:41 | 39.54289 | 2.34864 | 12984 ft | 413 kts | 81° |
| 2026-05-04 13:42 | 39.56136 | 2.41887 | 12112 ft | 417 kts | 58° |
| 2026-05-04 13:42 | 39.57779 | 2.44903 | 11923 ft | 401 kts | 54° |
| 2026-05-04 13:42 | 39.59371 | 2.47828 | 11538 ft | 393 kts | 55° |
| 2026-05-04 13:42 | 39.60915 | 2.50728 | 11032 ft | 389 kts | 56° |
| 2026-05-04 13:43 | 39.62426 | 2.53597 | 10640 ft | 382 kts | 56° |
| 2026-05-04 13:43 | 39.63905 | 2.56416 | 10370 ft | 373 kts | 57° |
| 2026-05-04 13:43 | 39.65345 | 2.59162 | 10133 ft | 364 kts | 56° |
| 2026-05-04 13:43 | 39.66765 | 2.61869 | 9983 ft | 359 kts | 57° |
| 2026-05-04 13:44 | 39.68146 | 2.64495 | 9792 ft | 349 kts | 56° |
| 2026-05-04 13:44 | 39.69515 | 2.67090 | 9428 ft | 346 kts | 56° |
| 2026-05-04 13:44 | 39.70871 | 2.69660 | 9040 ft | 344 kts | 56° |
| 2026-05-04 13:44 | 39.72221 | 2.72220 | 8654 ft | 343 kts | 56° |
| 2026-05-04 13:45 | 39.73561 | 2.74765 | 8271 ft | 339 kts | 56° |
| 2026-05-04 13:45 | 39.74887 | 2.77284 | 7904 ft | 336 kts | 56° |
| 2026-05-04 13:45 | 39.76198 | 2.79785 | 7471 ft | 334 kts | 56° |
| 2026-05-04 13:45 | 39.77502 | 2.82274 | 7051 ft | 333 kts | 56° |
| 2026-05-04 13:46 | 39.78807 | 2.84762 | 6629 ft | 332 kts | 56° |
| 2026-05-04 13:46 | 39.80104 | 2.87234 | 6436 ft | 320 kts | 56° |
| 2026-05-04 13:46 | 39.81318 | 2.89548 | 6321 ft | 306 kts | 56° |
| 2026-05-04 13:46 | 39.82491 | 2.91786 | 6189 ft | 294 kts | 56° |
| 2026-05-04 13:47 | 39.83616 | 2.93937 | 6060 ft | 282 kts | 56° |
| 2026-05-04 13:47 | 39.84700 | 2.96010 | 5926 ft | 273 kts | 56° |
| 2026-05-04 13:47 | 39.85713 | 2.98083 | 5804 ft | 270 kts | 66° |
| 2026-05-04 13:47 | 39.86167 | 3.00452 | 5673 ft | 266 kts | 92° |
| 2026-05-04 13:48 | 39.85854 | 3.02776 | 5551 ft | 259 kts | 117° |
| 2026-05-04 13:48 | 39.84895 | 3.04670 | 5426 ft | 251 kts | 140° |
| 2026-05-04 13:48 | 39.83505 | 3.05900 | 5292 ft | 235 kts | 162° |
| 2026-05-04 13:48 | 39.81943 | 3.06407 | 5178 ft | 231 kts | 175° |
| 2026-05-04 13:49 | 39.80364 | 3.06768 | 5045 ft | 231 kts | 168° |
| 2026-05-04 13:49 | 39.78983 | 3.07858 | 4928 ft | 240 kts | 135° |
| 2026-05-04 13:49 | 39.78168 | 3.09774 | 4813 ft | 247 kts | 110° |
| 2026-05-04 13:49 | 39.77792 | 3.11969 | 4679 ft | 250 kts | 103° |
| 2026-05-04 13:50 | 39.77495 | 3.14192 | 4567 ft | 250 kts | 102° |
| 2026-05-04 13:50 | 39.77211 | 3.16415 | 4455 ft | 249 kts | 102° |
| 2026-05-04 13:50 | 39.76841 | 3.18597 | 4456 ft | 245 kts | 116° |
| 2026-05-04 13:50 | 39.75915 | 3.20391 | 4451 ft | 237 kts | 142° |
| 2026-05-04 13:51 | 39.74520 | 3.21473 | 4460 ft | 228 kts | 167° |
| 2026-05-04 13:51 | 39.72970 | 3.21697 | 4462 ft | 222 kts | 190° |
| 2026-05-04 13:51 | 39.71523 | 3.21100 | 4474 ft | 225 kts | 212° |
| 2026-05-04 13:51 | 39.70336 | 3.19732 | 4468 ft | 233 kts | 235° |
| 2026-05-04 13:52 | 39.69714 | 3.15586 | 4469 ft | 253 kts | 278° |
| 2026-05-04 13:52 | 39.70087 | 3.13336 | 4466 ft | 255 kts | 279° |
| 2026-05-04 13:52 | 39.70448 | 3.11118 | 4467 ft | 255 kts | 276° |
| 2026-05-04 13:53 | 39.70441 | 3.08811 | 4468 ft | 251 kts | 257° |
| 2026-05-04 13:53 | 39.69887 | 3.06713 | 4464 ft | 249 kts | 240° |
| 2026-05-04 13:53 | 39.68994 | 3.04792 | 4472 ft | 245 kts | 238° |
| 2026-05-04 13:54 | 39.67338 | 3.01252 | 4340 ft | 218 kts | 238° |
| 2026-05-04 13:54 | 39.66567 | 2.99607 | 4099 ft | 215 kts | 237° |
| 2026-05-04 13:54 | 39.65038 | 2.96346 | 3547 ft | 205 kts | 238° |
| 2026-05-04 13:55 | 39.64316 | 2.94807 | 3294 ft | 196 kts | 237° |
| 2026-05-04 13:55 | 39.62945 | 2.91890 | 2803 ft | 178 kts | 238° |
| 2026-05-04 13:55 | 39.62313 | 2.90545 | 2565 ft | 172 kts | 238° |
| 2026-05-04 13:56 | 39.61706 | 2.89253 | 2343 ft | 163 kts | 239° |
| 2026-05-04 13:56 | 39.61132 | 2.88035 | 2131 ft | 155 kts | 238° |
| 2026-05-04 13:56 | 39.60072 | 2.85782 | 1750 ft | 138 kts | 238° |
| 2026-05-04 13:57 | 39.59584 | 2.84743 | 1571 ft | 133 kts | 238° |
| 2026-05-04 13:57 | 39.59098 | 2.83714 | 1381 ft | 133 kts | 237° |
| 2026-05-04 13:58 | 39.57823 | 2.81007 | 946 ft | 133 kts | 237° |
| 2026-05-04 13:58 | 39.56718 | 2.78664 | 501 ft | 134 kts | 237° |
| 2026-05-04 13:58 | 39.56239 | 2.77648 | 380 ft | 130 kts | 237° |
| 2026-05-04 13:59 | 39.55763 | 2.76641 | 209 ft | 132 kts | 237° |
| 2026-05-04 13:59 | 39.55295 | 2.75638 | 52 ft | 126 kts | 237° |
| 2026-05-04 13:59 | 39.54732 | 2.74454 | 38 ft | 51 kts | 238° |
| 2026-05-04 14:00 | 39.54603 | 2.74184 | 37 ft | 30 kts | 240° |
| 2026-05-04 14:00 | 39.54550 | 2.73837 | 38 ft | 15 kts | 269° |
| 2026-05-04 14:00 | 39.54553 | 2.73747 | 38 ft | 4 kts | 274° |
| 2026-05-04 14:01 | 39.54556 | 2.73712 | 38 ft | 4 kts | 279° |
| 2026-05-04 14:01 | 39.54578 | 2.73660 | 38 ft | 14 kts | 309° |
| 2026-05-04 14:01 | 39.54683 | 2.73598 | 38 ft | 1 kts | 333° |
| 2026-05-04 14:02 | 39.54686 | 2.73595 | 38 ft | 1 kts | 330° |
| 2026-05-04 14:02 | 39.54713 | 2.73575 | 37 ft | 2 kts | 336° |
| 2026-05-04 14:02 | 39.54720 | 2.73576 | 37 ft | 0 kts | 6° |
| 2026-05-04 14:02 | 39.54737 | 2.73591 | 36 ft | 5 kts | 42° |
| 2026-05-04 14:03 | 39.54747 | 2.73609 | 38 ft | 1 kts | 56° |
| 2026-05-04 14:03 | 39.54752 | 2.73619 | 38 ft | 1 kts | 59° |
| 2026-05-04 14:03 | 39.54754 | 2.73624 | 38 ft | 0 kts | 60° |